sensor_id;sensor_type;location;lat;lon;timestamp;pressure;altitude;pressure_sealevel;temperature;humidity
60479;BME280;46321;48.398;11.754;2023-03-25T00:01:50;96040.81;;;8.76;69.54
60479;BME280;46321;48.398;11.754;2023-03-25T00:04:15;96050.00;;;8.89;69.09
60479;BME280;46321;48.398;11.754;2023-03-25T00:06:41;96046.06;;;8.85;68.98
60479;BME280;46321;48.398;11.754;2023-03-25T00:09:07;96035.00;;;8.81;69.05
60479;BME280;46321;48.398;11.754;2023-03-25T00:11:32;96040.78;;;8.85;68.79
60479;BME280;46321;48.398;11.754;2023-03-25T00:13:57;96033.31;;;8.88;68.46
60479;BME280;46321;48.398;11.754;2023-03-25T00:16:23;96031.97;;;8.92;68.46
60479;BME280;46321;48.398;11.754;2023-03-25T00:18:48;96025.28;;;8.81;68.55
60479;BME280;46321;48.398;11.754;2023-03-25T00:21:14;96034.38;;;8.79;68.67
60479;BME280;46321;48.398;11.754;2023-03-25T00:23:40;96034.63;;;8.69;69.25
60479;BME280;46321;48.398;11.754;2023-03-25T00:26:06;96030.50;;;8.66;68.68
60479;BME280;46321;48.398;11.754;2023-03-25T00:28:33;96030.53;;;8.58;69.52
60479;BME280;46321;48.398;11.754;2023-03-25T00:31:00;96024.06;;;8.69;69.22
60479;BME280;46321;48.398;11.754;2023-03-25T00:33:27;96033.28;;;8.65;69.33
60479;BME280;46321;48.398;11.754;2023-03-25T00:35:53;96030.50;;;8.66;68.92
60479;BME280;46321;48.398;11.754;2023-03-25T00:38:24;96028.00;;;8.73;68.57
60479;BME280;46321;48.398;11.754;2023-03-25T00:41:19;96032.63;;;8.71;68.81
60479;BME280;46321;48.398;11.754;2023-03-25T00:43:51;96033.25;;;8.73;68.66
60479;BME280;46321;48.398;11.754;2023-03-25T00:46:17;96033.47;;;8.63;69.00
60479;BME280;46321;48.398;11.754;2023-03-25T00:48:42;96032.66;;;8.63;68.86
60479;BME280;46321;48.398;11.754;2023-03-25T00:51:08;96029.22;;;8.62;68.93
60479;BME280;46321;48.398;11.754;2023-03-25T00:53:35;96025.88;;;8.68;68.73
60479;BME280;46321;48.398;11.754;2023-03-25T00:56:02;96033.47;;;8.63;68.41
60479;BME280;46321;48.398;11.754;2023-03-25T00:58:27;96033.84;;;8.60;68.63
60479;BME280;46321;48.398;11.754;2023-03-25T01:00:53;96037.28;;;8.61;68.44
60479;BME280;46321;48.398;11.754;2023-03-25T01:03:29;96038.75;;;8.63;68.26
60479;BME280;46321;48.398;11.754;2023-03-25T01:05:56;96035.00;;;8.49;68.51
60479;BME280;46321;48.398;11.754;2023-03-25T01:08:22;96029.53;;;8.59;68.32
60479;BME280;46321;48.398;11.754;2023-03-25T01:10:53;96033.00;;;8.59;68.51
60479;BME280;46321;48.398;11.754;2023-03-25T01:13:19;96021.56;;;8.67;67.85
60479;BME280;46321;48.398;11.754;2023-03-25T01:15:45;96024.28;;;8.59;67.96
60479;BME280;46321;48.398;11.754;2023-03-25T01:18:10;96013.19;;;8.64;68.07
60479;BME280;46321;48.398;11.754;2023-03-25T01:20:38;96015.97;;;8.70;67.80
60479;BME280;46321;48.398;11.754;2023-03-25T01:23:03;96015.97;;;8.70;67.59
60479;BME280;46321;48.398;11.754;2023-03-25T01:25:28;96013.31;;;8.70;67.59
60479;BME280;46321;48.398;11.754;2023-03-25T01:27:54;96015.97;;;8.70;67.46
60479;BME280;46321;48.398;11.754;2023-03-25T01:30:19;96018.22;;;8.74;67.37
60479;BME280;46321;48.398;11.754;2023-03-25T01:32:45;96015.44;;;8.75;67.52
60479;BME280;46321;48.398;11.754;2023-03-25T01:35:10;96005.09;;;8.65;67.62
60479;BME280;46321;48.398;11.754;2023-03-25T01:37:36;96013.13;;;8.72;67.59
60479;BME280;46321;48.398;11.754;2023-03-25T01:40:03;96004.06;;;8.75;67.34
60479;BME280;46321;48.398;11.754;2023-03-25T01:42:34;96008.63;;;8.81;67.35
60479;BME280;46321;48.398;11.754;2023-03-25T01:45:21;96002.13;;;8.68;67.72
60479;BME280;46321;48.398;11.754;2023-03-25T01:47:49;95992.16;;;8.79;67.41
60479;BME280;46321;48.398;11.754;2023-03-25T01:50:17;95983.94;;;8.74;67.63
60479;BME280;46321;48.398;11.754;2023-03-25T01:52:44;95983.78;;;8.75;67.32
60479;BME280;46321;48.398;11.754;2023-03-25T01:55:12;95975.47;;;8.78;66.84
60479;BME280;46321;48.398;11.754;2023-03-25T01:57:40;95990.00;;;8.82;66.91
60479;BME280;46321;48.398;11.754;2023-03-25T02:00:11;95985.50;;;8.83;66.77
60479;BME280;46321;48.398;11.754;2023-03-25T02:02:37;95987.06;;;8.77;66.98
60479;BME280;46321;48.398;11.754;2023-03-25T02:05:09;95987.06;;;8.77;66.91
60479;BME280;46321;48.398;11.754;2023-03-25T02:07:38;95980.53;;;8.65;67.34
60479;BME280;46321;48.398;11.754;2023-03-25T02:10:08;95980.75;;;8.78;66.59
60479;BME280;46321;48.398;11.754;2023-03-25T02:12:34;95978.31;;;8.77;66.50
60479;BME280;46321;48.398;11.754;2023-03-25T02:15:01;95976.50;;;8.77;66.24
60479;BME280;46321;48.398;11.754;2023-03-25T02:20:23;95977.47;;;8.76;66.21
60479;BME280;46321;48.398;11.754;2023-03-25T02:28:41;95973.03;;;8.77;65.96
60479;BME280;46321;48.398;11.754;2023-03-25T02:45:17;95959.94;;;8.84;65.09
60479;BME280;46321;48.398;11.754;2023-03-25T02:47:52;95955.72;;;8.74;65.37
60479;BME280;46321;48.398;11.754;2023-03-25T02:50:23;95951.28;;;8.75;65.41
60479;BME280;46321;48.398;11.754;2023-03-25T02:52:52;95955.59;;;8.67;65.69
60479;BME280;46321;48.398;11.754;2023-03-25T02:55:20;95957.34;;;8.60;65.80
60479;BME280;46321;48.398;11.754;2023-03-25T02:57:49;95958.31;;;8.59;65.76
60479;BME280;46321;48.398;11.754;2023-03-25T03:00:21;95962.28;;;8.55;66.22
60479;BME280;46321;48.398;11.754;2023-03-25T03:02:53;95983.06;;;8.50;66.66
60479;BME280;46321;48.398;11.754;2023-03-25T03:05:29;95967.25;;;8.50;66.82
60479;BME280;46321;48.398;11.754;2023-03-25T03:11:11;95969.06;;;8.57;66.36
60479;BME280;46321;48.398;11.754;2023-03-25T03:19:12;95967.41;;;8.80;65.70
60479;BME280;46321;48.398;11.754;2023-03-25T03:21:57;95972.84;;;8.78;65.60
60479;BME280;46321;48.398;11.754;2023-03-25T03:24:34;95972.09;;;8.69;65.85
60479;BME280;46321;48.398;11.754;2023-03-25T03:27:05;95964.16;;;8.69;65.70
60479;BME280;46321;48.398;11.754;2023-03-25T03:29:36;95958.75;;;8.71;65.52
60479;BME280;46321;48.398;11.754;2023-03-25T03:32:16;95958.88;;;8.69;65.68
60479;BME280;46321;48.398;11.754;2023-03-25T03:34:51;95970.91;;;8.72;65.74
60479;BME280;46321;48.398;11.754;2023-03-25T03:37:23;95971.69;;;8.57;65.83
60479;BME280;46321;48.398;11.754;2023-03-25T03:39:51;95978.75;;;8.57;65.96
60479;BME280;46321;48.398;11.754;2023-03-25T03:42:46;95984.34;;;8.54;66.25
60479;BME280;46321;48.398;11.754;2023-03-25T03:45:21;95993.25;;;8.61;65.85
60479;BME280;46321;48.398;11.754;2023-03-25T03:47:53;95982.72;;;8.53;66.30
60479;BME280;46321;48.398;11.754;2023-03-25T03:50:25;95988.81;;;8.62;65.60
60479;BME280;46321;48.398;11.754;2023-03-25T03:52:58;95990.63;;;8.61;65.80
60479;BME280;46321;48.398;11.754;2023-03-25T03:55:47;95978.63;;;8.50;65.81
60479;BME280;46321;48.398;11.754;2023-03-25T03:58:23;95985.72;;;8.50;65.56
60479;BME280;46321;48.398;11.754;2023-03-25T04:00:57;95991.38;;;8.38;65.96
60479;BME280;46321;48.398;11.754;2023-03-25T04:03:31;95982.81;;;8.36;65.76
60479;BME280;46321;48.398;11.754;2023-03-25T04:06:22;95989.94;;;8.35;65.64
60479;BME280;46321;48.398;11.754;2023-03-25T04:11:50;95990.19;;;8.09;66.12
60479;BME280;46321;48.398;11.754;2023-03-25T04:14:17;95995.97;;;8.12;65.98
60479;BME280;46321;48.398;11.754;2023-03-25T04:16:42;95995.97;;;8.12;65.92
60479;BME280;46321;48.398;11.754;2023-03-25T04:19:10;95992.84;;;8.09;65.88
60479;BME280;46321;48.398;11.754;2023-03-25T04:21:37;95989.97;;;7.95;66.14
60479;BME280;46321;48.398;11.754;2023-03-25T04:24:03;95994.03;;;7.98;65.96
60479;BME280;46321;48.398;11.754;2023-03-25T04:26:28;95996.00;;;8.04;65.87
60479;BME280;46321;48.398;11.754;2023-03-25T04:28:59;96004.94;;;7.95;66.20
60479;BME280;46321;48.398;11.754;2023-03-25T04:31:25;96005.91;;;7.94;66.13
60479;BME280;46321;48.398;11.754;2023-03-25T04:33:54;96015.63;;;7.93;66.12
60479;BME280;46321;48.398;11.754;2023-03-25T04:36:21;96015.19;;;7.81;66.69
60479;BME280;46321;48.398;11.754;2023-03-25T04:38:47;96014.22;;;7.74;66.78
60479;BME280;46321;48.398;11.754;2023-03-25T04:41:12;96014.69;;;7.86;66.36
60479;BME280;46321;48.398;11.754;2023-03-25T04:43:39;96012.56;;;7.81;66.40
60479;BME280;46321;48.398;11.754;2023-03-25T04:46:05;96014.19;;;7.82;66.57
60479;BME280;46321;48.398;11.754;2023-03-25T04:48:33;96023.75;;;7.83;66.45
60479;BME280;46321;48.398;11.754;2023-03-25T04:51:00;96016.97;;;7.89;66.19
60479;BME280;46321;48.398;11.754;2023-03-25T04:53:28;96014.34;;;7.89;66.46
60479;BME280;46321;48.398;11.754;2023-03-25T04:55:54;96014.66;;;7.94;66.17
60479;BME280;46321;48.398;11.754;2023-03-25T04:58:20;96013.69;;;7.95;66.16
60479;BME280;46321;48.398;11.754;2023-03-25T05:00:48;96012.84;;;7.95;65.98
60479;BME280;46321;48.398;11.754;2023-03-25T05:03:15;96015.31;;;7.96;66.02
60479;BME280;46321;48.398;11.754;2023-03-25T05:05:40;96013.94;;;8.09;65.60
60479;BME280;46321;48.398;11.754;2023-03-25T05:08:06;96014.47;;;7.96;65.94
60479;BME280;46321;48.398;11.754;2023-03-25T05:10:32;95995.22;;;7.95;65.92
60479;BME280;46321;48.398;11.754;2023-03-25T05:13:04;96007.84;;;8.08;65.40
60479;BME280;46321;48.398;11.754;2023-03-25T05:15:31;96003.59;;;7.99;65.59
60479;BME280;46321;48.398;11.754;2023-03-25T05:17:59;96001.44;;;8.02;65.21
60479;BME280;46321;48.398;11.754;2023-03-25T05:20:26;95997.31;;;8.08;64.97
60479;BME280;46321;48.398;11.754;2023-03-25T05:22:51;95989.78;;;7.97;64.94
60479;BME280;46321;48.398;11.754;2023-03-25T05:25:17;95997.50;;;7.98;64.60
60479;BME280;46321;48.398;11.754;2023-03-25T05:27:46;96007.41;;;7.96;64.74
60479;BME280;46321;48.398;11.754;2023-03-25T05:30:11;96003.09;;;8.04;64.63
60479;BME280;46321;48.398;11.754;2023-03-25T05:32:37;96008.31;;;8.12;64.16
60479;BME280;46321;48.398;11.754;2023-03-25T05:35:05;96015.75;;;8.08;64.66
60479;BME280;46321;48.398;11.754;2023-03-25T05:37:30;96010.25;;;8.18;63.99
60479;BME280;46321;48.398;11.754;2023-03-25T05:39:56;96023.50;;;8.10;64.21
60479;BME280;46321;48.398;11.754;2023-03-25T05:42:22;96018.53;;;8.15;63.76
60479;BME280;46321;48.398;11.754;2023-03-25T05:44:49;96023.97;;;8.13;64.00
60479;BME280;46321;48.398;11.754;2023-03-25T05:47:22;96027.22;;;8.24;63.59
60479;BME280;46321;48.398;11.754;2023-03-25T05:49:49;96028.03;;;8.24;63.60
60479;BME280;46321;48.398;11.754;2023-03-25T05:52:15;96022.59;;;8.26;63.78
60479;BME280;46321;48.398;11.754;2023-03-25T05:54:42;96028.66;;;8.35;63.70
60479;BME280;46321;48.398;11.754;2023-03-25T05:57:07;96028.34;;;8.30;63.70
60479;BME280;46321;48.398;11.754;2023-03-25T05:59:33;96039.16;;;8.43;63.40
60479;BME280;46321;48.398;11.754;2023-03-25T06:02:03;96044.91;;;8.47;63.21
60479;BME280;46321;48.398;11.754;2023-03-25T06:04:28;96049.16;;;8.56;63.48
60479;BME280;46321;48.398;11.754;2023-03-25T06:06:53;96043.91;;;8.48;63.34
60479;BME280;46321;48.398;11.754;2023-03-25T06:09:19;96054.13;;;8.51;63.22
60479;BME280;46321;48.398;11.754;2023-03-25T06:11:44;96067.34;;;8.43;63.24
60479;BME280;46321;48.398;11.754;2023-03-25T06:14:10;96047.66;;;8.54;62.87
60479;BME280;46321;48.398;11.754;2023-03-25T06:16:36;96060.91;;;8.45;62.82
60479;BME280;46321;48.398;11.754;2023-03-25T06:19:01;96066.88;;;8.39;63.04
60479;BME280;46321;48.398;11.754;2023-03-25T06:21:30;96065.81;;;8.57;62.67
60479;BME280;46321;48.398;11.754;2023-03-25T06:23:57;96064.81;;;8.58;62.47
60479;BME280;46321;48.398;11.754;2023-03-25T06:26:23;96078.88;;;8.50;62.33
60479;BME280;46321;48.398;11.754;2023-03-25T06:28:49;96070.94;;;8.50;62.33
60479;BME280;46321;48.398;11.754;2023-03-25T06:31:16;96078.53;;;8.45;62.50
60479;BME280;46321;48.398;11.754;2023-03-25T06:33:43;96078.16;;;8.56;62.03
60479;BME280;46321;48.398;11.754;2023-03-25T06:36:09;96080.59;;;8.75;62.11
60479;BME280;46321;48.398;11.754;2023-03-25T06:38:36;96083.88;;;8.77;61.34
60479;BME280;46321;48.398;11.754;2023-03-25T06:41:02;96077.59;;;8.78;61.29
60479;BME280;46321;48.398;11.754;2023-03-25T06:43:27;96071.81;;;8.82;60.81
60479;BME280;46321;48.398;11.754;2023-03-25T06:45:52;96084.31;;;8.80;61.00
60479;BME280;46321;48.398;11.754;2023-03-25T06:48:18;96081.28;;;8.68;61.30
60479;BME280;46321;48.398;11.754;2023-03-25T06:50:43;96078.47;;;8.70;60.91
60479;BME280;46321;48.398;11.754;2023-03-25T06:53:09;96086.97;;;8.80;60.70
60479;BME280;46321;48.398;11.754;2023-03-25T06:55:35;96092.47;;;8.70;60.90
60479;BME280;46321;48.398;11.754;2023-03-25T06:58:01;96089.66;;;8.72;60.72
60479;BME280;46321;48.398;11.754;2023-03-25T07:00:26;96088.69;;;8.65;61.19
60479;BME280;46321;48.398;11.754;2023-03-25T07:02:53;96080.78;;;8.65;60.62
60479;BME280;46321;48.398;11.754;2023-03-25T07:05:18;96101.50;;;8.76;60.75
60479;BME280;46321;48.398;11.754;2023-03-25T07:07:43;96103.72;;;8.64;60.41
60479;BME280;46321;48.398;11.754;2023-03-25T07:10:11;96113.28;;;8.65;60.46
60479;BME280;46321;48.398;11.754;2023-03-25T07:12:37;96110.72;;;8.80;59.85
60479;BME280;46321;48.398;11.754;2023-03-25T07:15:02;96114.88;;;8.75;59.80
60479;BME280;46321;48.398;11.754;2023-03-25T07:17:27;96109.00;;;8.64;59.53
60479;BME280;46321;48.398;11.754;2023-03-25T07:19:53;96120.03;;;8.68;59.44
60479;BME280;46321;48.398;11.754;2023-03-25T07:22:18;96125.25;;;8.76;58.90
60479;BME280;46321;48.398;11.754;2023-03-25T07:24:43;96136.44;;;8.87;59.06
60479;BME280;46321;48.398;11.754;2023-03-25T07:27:10;96141.88;;;8.85;58.39
60479;BME280;46321;48.398;11.754;2023-03-25T07:29:36;96136.44;;;8.87;57.79
60479;BME280;46321;48.398;11.754;2023-03-25T07:32:02;96151.22;;;8.96;57.67
60479;BME280;46321;48.398;11.754;2023-03-25T07:34:27;96152.69;;;8.99;58.09
60479;BME280;46321;48.398;11.754;2023-03-25T07:36:52;96153.66;;;9.06;57.76
60479;BME280;46321;48.398;11.754;2023-03-25T07:39:17;96152.38;;;9.25;56.79
60479;BME280;46321;48.398;11.754;2023-03-25T07:41:43;96159.78;;;9.30;56.45
60479;BME280;46321;48.398;11.754;2023-03-25T07:44:08;96164.53;;;9.35;55.93
60479;BME280;46321;48.398;11.754;2023-03-25T07:46:34;96153.00;;;9.74;55.76
60479;BME280;46321;48.398;11.754;2023-03-25T07:48:59;96154.78;;;9.98;54.06
60479;BME280;46321;48.398;11.754;2023-03-25T07:51:25;96152.19;;;10.28;53.28
60479;BME280;46321;48.398;11.754;2023-03-25T07:53:50;96138.28;;;10.86;51.90
60479;BME280;46321;48.398;11.754;2023-03-25T07:56:15;96146.13;;;11.32;51.09
60479;BME280;46321;48.398;11.754;2023-03-25T07:58:41;96155.88;;;11.09;51.04
60479;BME280;46321;48.398;11.754;2023-03-25T08:01:08;96147.66;;;10.67;51.93
60479;BME280;46321;48.398;11.754;2023-03-25T08:03:34;96150.34;;;10.28;52.63
60479;BME280;46321;48.398;11.754;2023-03-25T08:06:00;96152.31;;;10.35;53.22
60479;BME280;46321;48.398;11.754;2023-03-25T08:08:26;96150.44;;;10.05;53.29
60479;BME280;46321;48.398;11.754;2023-03-25T08:10:54;96145.59;;;9.93;53.46
60479;BME280;46321;48.398;11.754;2023-03-25T08:13:20;96151.38;;;10.12;54.28
60479;BME280;46321;48.398;11.754;2023-03-25T08:15:45;96151.25;;;10.96;52.56
60479;BME280;46321;48.398;11.754;2023-03-25T08:18:10;96147.44;;;11.21;51.78
60479;BME280;46321;48.398;11.754;2023-03-25T08:20:36;96155.81;;;11.25;51.66
60479;BME280;46321;48.398;11.754;2023-03-25T08:23:01;96154.78;;;11.41;51.36
60479;BME280;46321;48.398;11.754;2023-03-25T08:25:28;96154.81;;;12.49;49.61
60479;BME280;46321;48.398;11.754;2023-03-25T08:27:53;96151.09;;;12.43;46.95
60479;BME280;46321;48.398;11.754;2023-03-25T08:30:21;96145.41;;;12.46;47.52
60479;BME280;46321;48.398;11.754;2023-03-25T08:32:46;96143.59;;;12.96;46.97
60479;BME280;46321;48.398;11.754;2023-03-25T08:35:18;96160.03;;;12.71;46.32
60479;BME280;46321;48.398;11.754;2023-03-25T08:37:43;96148.63;;;12.42;46.97
60479;BME280;46321;48.398;11.754;2023-03-25T08:40:09;96151.19;;;11.99;47.75
60479;BME280;46321;48.398;11.754;2023-03-25T08:42:35;96156.75;;;12.05;48.06
60479;BME280;46321;48.398;11.754;2023-03-25T08:45:01;96162.91;;;11.61;49.46
60479;BME280;46321;48.398;11.754;2023-03-25T08:47:26;96155.38;;;11.58;50.16
60479;BME280;46321;48.398;11.754;2023-03-25T08:49:52;96156.63;;;11.62;49.76
60479;BME280;46321;48.398;11.754;2023-03-25T08:52:17;96149.41;;;11.34;50.18
60479;BME280;46321;48.398;11.754;2023-03-25T08:54:42;96147.50;;;11.06;50.75
60479;BME280;46321;48.398;11.754;2023-03-25T08:57:07;96134.94;;;10.77;51.42
60479;BME280;46321;48.398;11.754;2023-03-25T08:59:33;96143.22;;;10.90;51.31
60479;BME280;46321;48.398;11.754;2023-03-25T09:01:58;96139.13;;;10.87;51.06
60479;BME280;46321;48.398;11.754;2023-03-25T09:04:23;96143.72;;;10.63;51.90
60479;BME280;46321;48.398;11.754;2023-03-25T09:06:49;96140.44;;;10.61;52.43
60479;BME280;46321;48.398;11.754;2023-03-25T09:09:15;96136.53;;;10.57;52.83
60479;BME280;46321;48.398;11.754;2023-03-25T09:11:40;96137.78;;;10.46;52.68
60479;BME280;46321;48.398;11.754;2023-03-25T09:14:05;96118.38;;;10.53;53.35
60479;BME280;46321;48.398;11.754;2023-03-25T09:16:31;96131.72;;;10.82;53.03
60479;BME280;46321;48.398;11.754;2023-03-25T09:18:57;96139.56;;;11.06;52.34
60479;BME280;46321;48.398;11.754;2023-03-25T09:21:22;96132.50;;;11.57;51.64
60479;BME280;46321;48.398;11.754;2023-03-25T09:23:47;96125.97;;;12.10;50.84
60479;BME280;46321;48.398;11.754;2023-03-25T09:26:14;96122.88;;;12.35;49.12
60479;BME280;46321;48.398;11.754;2023-03-25T09:28:39;96113.09;;;12.78;48.31
60479;BME280;46321;48.398;11.754;2023-03-25T09:31:05;96124.31;;;12.80;48.23
60479;BME280;46321;48.398;11.754;2023-03-25T09:33:32;96110.09;;;13.09;47.29
60479;BME280;46321;48.398;11.754;2023-03-25T09:35:57;96134.78;;;12.96;47.64
60479;BME280;46321;48.398;11.754;2023-03-25T09:38:22;96122.34;;;12.96;47.25
60479;BME280;46321;48.398;11.754;2023-03-25T09:40:48;96110.41;;;12.71;48.26
60479;BME280;46321;48.398;11.754;2023-03-25T09:43:32;96110.44;;;13.82;47.55
60479;BME280;46321;48.398;11.754;2023-03-25T09:46:02;96106.09;;;15.27;45.33
60479;BME280;46321;48.398;11.754;2023-03-25T09:48:34;96115.13;;;16.10;41.63
60479;BME280;46321;48.398;11.754;2023-03-25T09:51:04;96105.69;;;15.82;41.55
60479;BME280;46321;48.398;11.754;2023-03-25T09:56:36;96115.22;;;14.46;43.71
60479;BME280;46321;48.398;11.754;2023-03-25T09:59:14;96083.00;;;14.68;42.66
60479;BME280;46321;48.398;11.754;2023-03-25T10:01:51;96105.16;;;14.55;44.02
60479;BME280;46321;48.398;11.754;2023-03-25T10:04:40;96110.78;;;14.26;42.78
60479;BME280;46321;48.398;11.754;2023-03-25T10:15:31;96101.78;;;13.39;46.67
60479;BME280;46321;48.398;11.754;2023-03-25T10:23:42;96096.41;;;12.49;46.95
60479;BME280;46321;48.398;11.754;2023-03-25T10:26:29;96099.44;;;12.10;48.71
60479;BME280;46321;48.398;11.754;2023-03-25T10:29:00;96089.38;;;11.99;48.86
60479;BME280;46321;48.398;11.754;2023-03-25T10:31:30;96098.34;;;11.98;48.92
60479;BME280;46321;48.398;11.754;2023-03-25T10:34:04;96098.81;;;12.08;49.59
60479;BME280;46321;48.398;11.754;2023-03-25T10:36:33;96088.06;;;12.52;48.91
60479;BME280;46321;48.398;11.754;2023-03-25T10:39:01;96088.03;;;12.45;48.35
60479;BME280;46321;48.398;11.754;2023-03-25T10:41:34;96072.72;;;13.17;46.88
60479;BME280;46321;48.398;11.754;2023-03-25T10:44:06;96065.84;;;14.50;45.11
60479;BME280;46321;48.398;11.754;2023-03-25T10:47:01;96069.69;;;15.40;42.14
60479;BME280;46321;48.398;11.754;2023-03-25T10:49:29;96088.25;;;14.36;42.95
60479;BME280;46321;48.398;11.754;2023-03-25T10:51:55;96071.16;;;13.64;43.83
60479;BME280;46321;48.398;11.754;2023-03-25T10:54:26;96066.78;;;13.22;45.12
60479;BME280;46321;48.398;11.754;2023-03-25T10:56:55;96060.41;;;12.96;45.26
60479;BME280;46321;48.398;11.754;2023-03-25T10:59:29;96051.88;;;13.34;45.70
60479;BME280;46321;48.398;11.754;2023-03-25T11:01:57;96044.91;;;13.20;45.28
60479;BME280;46321;48.398;11.754;2023-03-25T11:04:30;96051.84;;;13.07;44.69
60479;BME280;46321;48.398;11.754;2023-03-25T11:06:58;96043.66;;;13.09;45.52
60479;BME280;46321;48.398;11.754;2023-03-25T11:09:26;96041.06;;;13.49;45.30
60479;BME280;46321;48.398;11.754;2023-03-25T11:11:55;96026.44;;;15.38;42.73
60479;BME280;46321;48.398;11.754;2023-03-25T11:14:24;96027.63;;;15.86;40.54
60479;BME280;46321;48.398;11.754;2023-03-25T11:16:59;96027.41;;;16.32;39.83
60479;BME280;46321;48.398;11.754;2023-03-25T11:22:26;96000.47;;;15.96;38.89
60479;BME280;46321;48.398;11.754;2023-03-25T11:25:06;96015.13;;;15.10;40.84
60479;BME280;46321;48.398;11.754;2023-03-25T11:31:12;96006.03;;;13.93;43.01
60479;BME280;46321;48.398;11.754;2023-03-25T11:33:38;95994.63;;;13.72;44.19
60479;BME280;46321;48.398;11.754;2023-03-25T11:38:45;96013.63;;;13.42;43.99
60479;BME280;46321;48.398;11.754;2023-03-25T11:41:12;95990.53;;;13.36;44.44
60479;BME280;46321;48.398;11.754;2023-03-25T11:43:39;96006.69;;;13.55;44.11
60479;BME280;46321;48.398;11.754;2023-03-25T11:46:16;95994.63;;;13.32;43.57
60479;BME280;46321;48.398;11.754;2023-03-25T11:48:43;95980.94;;;13.28;45.01
60479;BME280;46321;48.398;11.754;2023-03-25T11:51:16;95990.75;;;13.14;45.38
60479;BME280;46321;48.398;11.754;2023-03-25T11:53:46;95977.88;;;13.24;45.35
60479;BME280;46321;48.398;11.754;2023-03-25T11:56:16;95972.31;;;13.46;44.58
60479;BME280;46321;48.398;11.754;2023-03-25T11:58:46;95971.94;;;13.49;45.00
60479;BME280;46321;48.398;11.754;2023-03-25T12:01:24;95966.19;;;13.73;44.36
60479;BME280;46321;48.398;11.754;2023-03-25T12:04:04;95957.00;;;13.62;44.76
60479;BME280;46321;48.398;11.754;2023-03-25T12:06:31;95961.09;;;13.58;44.97
60479;BME280;46321;48.398;11.754;2023-03-25T12:08:59;95976.63;;;13.40;44.36
60479;BME280;46321;48.398;11.754;2023-03-25T12:11:31;95951.91;;;13.33;44.76
60479;BME280;46321;48.398;11.754;2023-03-25T12:14:18;95953.56;;;13.21;44.74
60479;BME280;46321;48.398;11.754;2023-03-25T12:19:37;95953.53;;;13.34;44.48
60479;BME280;46321;48.398;11.754;2023-03-25T12:22:30;95909.81;;;13.16;45.07
60479;BME280;46321;48.398;11.754;2023-03-25T12:28:05;95942.53;;;13.03;44.24
60479;BME280;46321;48.398;11.754;2023-03-25T12:30:37;95934.13;;;13.27;44.75
60479;BME280;46321;48.398;11.754;2023-03-25T12:33:28;95925.31;;;13.26;44.47
60479;BME280;46321;48.398;11.754;2023-03-25T12:36:13;95941.91;;;13.15;44.60
60479;BME280;46321;48.398;11.754;2023-03-25T12:39:01;95931.84;;;13.37;44.41
60479;BME280;46321;48.398;11.754;2023-03-25T12:41:38;95921.44;;;13.36;45.32
60479;BME280;46321;48.398;11.754;2023-03-25T12:44:22;95932.69;;;13.24;43.97
60479;BME280;46321;48.398;11.754;2023-03-25T12:47:07;95940.47;;;13.26;44.49
60479;BME280;46321;48.398;11.754;2023-03-25T12:57:53;95954.75;;;12.84;45.30
60479;BME280;46321;48.398;11.754;2023-03-25T13:00:40;95958.84;;;12.93;45.92
60479;BME280;46321;48.398;11.754;2023-03-25T13:03:36;95942.88;;;12.59;46.45
60479;BME280;46321;48.398;11.754;2023-03-25T13:06:16;95965.69;;;12.33;46.89
60479;BME280;46321;48.398;11.754;2023-03-25T13:08:50;95956.56;;;12.50;46.52
60479;BME280;46321;48.398;11.754;2023-03-25T13:11:40;95950.81;;;12.46;45.07
60479;BME280;46321;48.398;11.754;2023-03-25T13:14:14;95942.03;;;12.32;44.56
60479;BME280;46321;48.398;11.754;2023-03-25T13:16:42;95935.91;;;12.45;44.61
60479;BME280;46321;48.398;11.754;2023-03-25T13:19:12;95933.09;;;12.67;44.05
60479;BME280;46321;48.398;11.754;2023-03-25T13:21:47;95930.84;;;12.64;44.44
60479;BME280;46321;48.398;11.754;2023-03-25T13:24:18;95922.44;;;12.53;45.36
60479;BME280;46321;48.398;11.754;2023-03-25T13:26:45;95940.28;;;12.10;46.74
60479;BME280;46321;48.398;11.754;2023-03-25T13:29:22;95917.34;;;11.89;47.63
60479;BME280;46321;48.398;11.754;2023-03-25T13:31:49;95926.38;;;12.08;47.18
60479;BME280;46321;48.398;11.754;2023-03-25T13:34:39;95905.97;;;12.02;46.57
60479;BME280;46321;48.398;11.754;2023-03-25T13:37:20;95898.84;;;12.02;46.70
60479;BME280;46321;48.398;11.754;2023-03-25T13:45:17;95930.41;;;11.90;46.83
60479;BME280;46321;48.398;11.754;2023-03-25T13:47:48;95932.63;;;11.87;48.43
60479;BME280;46321;48.398;11.754;2023-03-25T13:50:23;95932.50;;;12.02;47.52
60479;BME280;46321;48.398;11.754;2023-03-25T13:52:55;95922.56;;;12.18;48.15
60479;BME280;46321;48.398;11.754;2023-03-25T13:55:26;95923.63;;;12.37;46.74
60479;BME280;46321;48.398;11.754;2023-03-25T14:03:44;95925.91;;;12.47;45.76
60479;BME280;46321;48.398;11.754;2023-03-25T14:12:12;95926.81;;;12.12;45.41
60479;BME280;46321;48.398;11.754;2023-03-25T14:14:43;95919.94;;;12.24;46.14
60479;BME280;46321;48.398;11.754;2023-03-25T14:17:11;95921.38;;;12.27;46.99
60479;BME280;46321;48.398;11.754;2023-03-25T14:19:40;95928.56;;;12.47;46.57
60479;BME280;46321;48.398;11.754;2023-03-25T14:22:12;95925.69;;;12.42;45.63
60479;BME280;46321;48.398;11.754;2023-03-25T14:24:40;95907.69;;;12.30;45.57
60479;BME280;46321;48.398;11.754;2023-03-25T14:27:14;95917.47;;;12.16;46.46
60479;BME280;46321;48.398;11.754;2023-03-25T14:29:51;95914.22;;;12.21;46.44
60479;BME280;46321;48.398;11.754;2023-03-25T14:34:45;95919.63;;;11.99;47.53
60479;BME280;46321;48.398;11.754;2023-03-25T14:37:24;95922.72;;;12.02;47.37
60479;BME280;46321;48.398;11.754;2023-03-25T14:39:53;95925.53;;;12.01;47.55
60479;BME280;46321;48.398;11.754;2023-03-25T14:42:39;95923.72;;;12.08;47.28